createdAt,value
2023-04-01T00:06:18.798Z,6.76
2023-04-01T00:26:18.942Z,6.63
2023-04-01T00:46:18.881Z,6.49
2023-04-01T01:06:18.838Z,6.45
2023-04-01T01:26:18.865Z,6.42
2023-04-01T01:46:18.865Z,6.38
2023-04-01T02:06:18.920Z,6.40
2023-04-01T02:26:18.790Z,6.37
2023-04-01T02:46:18.665Z,6.36
2023-04-01T03:06:18.874Z,6.36
2023-04-01T03:26:18.808Z,6.36
2023-04-01T03:46:18.814Z,6.26
2023-04-01T04:06:18.807Z,6.23
2023-04-01T04:26:18.750Z,6.27
2023-04-01T04:46:18.744Z,6.28
2023-04-01T05:06:18.569Z,6.34
2023-04-01T05:26:18.615Z,6.36
2023-04-01T05:46:18.567Z,6.53
2023-04-01T06:06:18.644Z,6.74
2023-04-01T06:26:18.521Z,6.90
2023-04-01T06:46:18.658Z,7.19
2023-04-01T07:06:18.675Z,7.49
2023-04-01T07:26:18.618Z,7.85
2023-04-01T07:46:18.619Z,8.24
2023-04-01T08:06:18.448Z,8.53
2023-04-01T08:26:18.591Z,8.72
2023-04-01T08:46:18.568Z,9.52
2023-04-01T09:06:18.412Z,9.57
2023-04-01T09:26:18.502Z,9.84
2023-04-01T09:46:18.356Z,9.98
2023-04-01T10:06:18.327Z,10.41
2023-04-01T10:26:18.407Z,10.44
2023-04-01T10:46:18.477Z,10.64
2023-04-01T11:06:18.454Z,10.73
2023-04-01T11:26:18.307Z,10.94
2023-04-01T11:46:18.219Z,10.60
2023-04-01T12:06:18.276Z,9.96
2023-04-01T12:26:18.191Z,9.69
2023-04-01T12:46:18.167Z,9.36
2023-04-01T13:06:18.170Z,9.03
2023-04-01T13:26:18.133Z,8.87
2023-04-01T13:46:18.135Z,8.95
2023-04-01T14:06:18.088Z,9.00
2023-04-01T14:46:18.049Z,8.93
2023-04-01T15:06:18.041Z,9.03
2023-04-01T15:26:18.022Z,8.99
2023-04-01T15:46:18.221Z,8.89
2023-04-01T16:06:18.137Z,8.78
2023-04-01T16:26:18.174Z,8.65
2023-04-01T16:46:18.116Z,8.48
2023-04-01T17:06:17.915Z,8.30
2023-04-01T17:26:18.098Z,8.18
2023-04-01T18:06:18.034Z,7.86
2023-04-01T18:26:17.933Z,7.74
2023-04-01T18:46:17.848Z,7.70
2023-04-01T19:06:17.999Z,7.64
2023-04-01T19:46:17.809Z,7.52
2023-04-01T20:06:17.941Z,7.42
2023-04-01T20:26:17.804Z,7.35
2023-04-01T20:46:17.862Z,7.30
2023-04-01T21:06:17.851Z,7.23
2023-04-01T21:26:17.785Z,7.18
2023-04-01T21:46:17.818Z,7.14
2023-04-01T22:06:17.827Z,7.11
2023-04-01T22:26:17.693Z,7.11
2023-04-01T22:46:17.828Z,7.07
2023-04-01T23:06:17.840Z,7.03
2023-04-01T23:26:17.781Z,6.93
2023-04-01T23:46:17.719Z,6.77
